Terminal Aerodrome Forecast
Issued by NWS Tulsa, OK

Home | Current Version | Previous Version | Text Only | Print | Product List | Glossary On
Versions: 1 2 3 4 5 6 7 8 9 10 11 12 13 14 15
000
FTUS44 KTSA 291100
TAFTUL
TAF
KTUL 291128Z 2912/3012 18009KT P6SM BKN050 OVC100
      TEMPO 2912/2915 5SM -SHRA OVC050
     FM291500 17012KT P6SM OVC015
      TEMPO 2915/2918 5SM -SHRA OVC015
     FM291800 17006KT P6SM BKN025
      TEMPO 2918/2922 4SM -TSRA BKN015CB
     FM300000 14006KT P6SM BKN050 PROB30 3000/3006 4SM -SHRA
     FM300600 19008KT P6SM OVC050=

USA.gov is the U.S. government's official web portal to all federal, state and local government web resources and services.